createdAt,value
2018-02-01T00:01:59.668Z,99.90
2018-02-01T00:04:27.424Z,99.90
2018-02-01T00:06:55.107Z,99.90
2018-02-01T00:09:22.757Z,99.90
2018-02-01T00:11:50.397Z,99.90
2018-02-01T00:14:18.053Z,99.90
2018-02-01T00:16:46.216Z,99.90
2018-02-01T00:19:13.876Z,99.90
2018-02-01T00:21:42.281Z,99.90
2018-02-01T00:24:09.927Z,99.90
2018-02-01T00:26:38.318Z,99.90
2018-02-01T00:29:06.793Z,99.90
2018-02-01T00:31:36.043Z,99.90
2018-02-01T00:34:03.696Z,99.90
2018-02-01T00:36:31.414Z,99.90
2018-02-01T00:38:59.688Z,99.90
2018-02-01T00:41:27.347Z,99.90
2018-02-01T00:43:54.991Z,99.90
2018-02-01T00:46:22.635Z,99.90
2018-02-01T00:48:50.286Z,99.90
2018-02-01T00:51:18.710Z,99.90
2018-02-01T00:53:46.363Z,99.90
2018-02-01T00:56:14.019Z,99.90
2018-02-01T00:58:41.639Z,99.90
2018-02-01T01:01:09.319Z,99.90
2018-02-01T01:03:36.939Z,99.90
2018-02-01T01:06:04.702Z,99.90
2018-02-01T01:08:32.354Z,99.90
2018-02-01T01:11:00.785Z,99.90
2018-02-01T01:13:28.539Z,99.90
2018-02-01T01:15:56.146Z,99.90
2018-02-01T01:18:23.804Z,99.90
2018-02-01T01:20:51.417Z,99.90
2018-02-01T01:23:19.217Z,99.90
2018-02-01T01:25:46.947Z,99.90
2018-02-01T01:28:14.637Z,99.90
2018-02-01T01:30:42.319Z,99.90
2018-02-01T01:33:09.959Z,99.90
2018-02-01T01:35:38.694Z,99.90
2018-02-01T01:38:07.288Z,99.90
2018-02-01T01:40:35.172Z,99.90
2018-02-01T01:43:02.823Z,99.90
2018-02-01T01:45:30.475Z,99.90
2018-02-01T01:47:58.128Z,99.90
2018-02-01T01:50:25.802Z,99.90
2018-02-01T01:52:53.471Z,99.90
2018-02-01T01:55:21.171Z,99.90
2018-02-01T01:57:49.571Z,99.90
2018-02-01T02:00:17.648Z,99.90
2018-02-01T02:02:46.117Z,99.90
2018-02-01T02:05:14.486Z,99.90
2018-02-01T02:07:42.183Z,99.90
2018-02-01T02:10:10.567Z,99.90
2018-02-01T02:12:38.773Z,99.90
2018-02-01T02:15:06.488Z,99.90
2018-02-01T02:17:34.269Z,99.90
2018-02-01T02:20:01.950Z,99.90
2018-02-01T02:22:29.589Z,99.90
2018-02-01T02:24:57.230Z,99.90
2018-02-01T02:27:24.805Z,99.90
2018-02-01T02:29:52.387Z,99.90
2018-02-01T02:32:23.765Z,99.90
2018-02-01T02:34:52.262Z,99.90
2018-02-01T02:37:19.811Z,99.90
2018-02-01T02:39:48.144Z,99.90
2018-02-01T02:42:15.749Z,99.90
2018-02-01T02:44:43.317Z,99.90
2018-02-01T02:47:11.719Z,99.90
2018-02-01T02:49:40.046Z,99.90
2018-02-01T02:52:07.641Z,99.90
2018-02-01T02:54:35.212Z,99.90
2018-02-01T02:57:02.802Z,99.90
2018-02-01T02:59:30.459Z,99.90
2018-02-01T03:01:59.624Z,99.90
2018-02-01T03:04:27.188Z,99.90
2018-02-01T03:06:54.903Z,99.90
2018-02-01T03:09:23.260Z,99.90
2018-02-01T03:11:50.863Z,99.90
2018-02-01T03:14:18.444Z,99.90
2018-02-01T03:16:46.014Z,99.90
2018-02-01T03:19:13.672Z,99.90
2018-02-01T03:21:41.374Z,99.90
2018-02-01T03:24:09.816Z,99.90
2018-02-01T03:26:38.210Z,99.90
2018-02-01T03:29:06.598Z,99.90
2018-02-01T03:31:34.199Z,99.90
2018-02-01T03:34:01.751Z,99.90
2018-02-01T03:36:29.348Z,99.90
2018-02-01T03:38:57.688Z,99.90
2018-02-01T03:41:25.350Z,99.90
2018-02-01T03:43:53.037Z,99.90
2018-02-01T03:46:20.605Z,99.90
2018-02-01T03:48:48.194Z,99.90
2018-02-01T03:51:15.749Z,99.90
2018-02-01T03:53:43.292Z,99.90
2018-02-01T03:56:10.891Z,99.90
2018-02-01T03:58:39.209Z,99.90
2018-02-01T04:01:06.808Z,99.90
2018-02-01T04:03:34.410Z,99.90
2018-02-01T04:06:02.756Z,99.90
2018-02-01T04:08:30.325Z,99.90
2018-02-01T04:10:57.939Z,99.90
2018-02-01T04:13:25.824Z,99.90
2018-02-01T04:15:54.067Z,99.90
2018-02-01T04:18:22.427Z,99.90
2018-02-01T04:20:49.992Z,99.90
2018-02-01T04:23:17.558Z,99.90
2018-02-01T04:25:45.157Z,99.90
2018-02-01T04:28:12.765Z,99.90
2018-02-01T04:30:40.332Z,99.90
2018-02-01T04:33:07.884Z,99.90
2018-02-01T04:35:35.480Z,99.90
2018-02-01T04:38:03.042Z,99.90
2018-02-01T04:40:30.641Z,99.90
2018-02-01T04:42:58.221Z,99.90
2018-02-01T04:45:26.587Z,99.90
2018-02-01T04:47:54.903Z,99.90
2018-02-01T04:50:22.462Z,99.90
2018-02-01T04:52:50.040Z,99.90
2018-02-01T04:55:17.600Z,99.90
2018-02-01T04:57:45.208Z,99.90
2018-02-01T05:00:12.828Z,99.90
2018-02-01T05:02:40.621Z,99.90
2018-02-01T05:05:08.206Z,99.90
2018-02-01T05:07:35.856Z,99.90
2018-02-01T05:10:04.145Z,99.90
2018-02-01T05:12:31.877Z,99.90
2018-02-01T05:14:59.633Z,99.90
2018-02-01T05:17:27.245Z,99.90
2018-02-01T05:19:54.932Z,99.90
2018-02-01T05:22:23.308Z,99.90
2018-02-01T05:24:50.946Z,99.90
2018-02-01T05:27:19.426Z,99.90
2018-02-01T05:29:47.051Z,99.90
2018-02-01T05:32:15.401Z,99.90
2018-02-01T05:34:43.908Z,99.90
2018-02-01T05:37:12.300Z,99.90
2018-02-01T05:39:40.677Z,99.90
2018-02-01T05:42:09.438Z,99.90
2018-02-01T05:44:37.072Z,99.90
2018-02-01T05:47:05.476Z,99.90
2018-02-01T05:49:33.146Z,99.90
2018-02-01T05:52:00.864Z,99.90
2018-02-01T05:54:28.513Z,99.90
2018-02-01T05:56:56.174Z,99.90
2018-02-01T05:59:23.813Z,99.90
2018-02-01T06:01:51.542Z,99.90
2018-02-01T06:04:19.978Z,99.90
2018-02-01T06:06:47.639Z,99.90
2018-02-01T06:09:15.291Z,99.90
2018-02-01T06:11:42.892Z,99.90
2018-02-01T06:14:10.548Z,99.90
2018-02-01T06:16:38.216Z,99.90
2018-02-01T06:19:05.835Z,99.90
2018-02-01T06:21:33.495Z,99.90
2018-02-01T06:24:01.927Z,99.90
2018-02-01T06:26:29.589Z,99.90
2018-02-01T06:28:57.338Z,99.90
2018-02-01T06:31:24.969Z,99.90
2018-02-01T06:33:53.380Z,99.90
2018-02-01T06:36:21.003Z,99.90
2018-02-01T06:38:48.656Z,99.90
2018-02-01T06:41:16.359Z,99.90
2018-02-01T06:43:45.698Z,99.90
2018-02-01T06:46:13.337Z,99.90
2018-02-01T06:48:41.805Z,99.90
2018-02-01T06:51:10.185Z,99.90
2018-02-01T06:53:38.561Z,99.90
2018-02-01T06:56:06.222Z,99.90
2018-02-01T06:58:34.617Z,99.90
2018-02-01T07:01:03.147Z,99.90
2018-02-01T07:03:30.884Z,99.90
2018-02-01T07:05:59.261Z,99.90
2018-02-01T07:08:27.695Z,99.90
2018-02-01T07:10:55.294Z,99.90
2018-02-01T07:13:22.990Z,99.90
2018-02-01T07:15:50.615Z,99.90
2018-02-01T07:18:18.280Z,99.90
2018-02-01T07:20:45.908Z,99.90
2018-02-01T07:23:13.569Z,99.90
2018-02-01T07:25:41.259Z,99.90
2018-02-01T07:28:08.877Z,99.90
2018-02-01T07:30:37.313Z,99.90
2018-02-01T07:33:04.956Z,99.90
2018-02-01T07:35:33.385Z,99.90
2018-02-01T07:38:03.495Z,99.90
2018-02-01T07:40:31.149Z,99.90
2018-02-01T07:42:58.845Z,99.90
2018-02-01T07:45:26.540Z,99.90
2018-02-01T07:47:54.979Z,99.90
2018-02-01T07:50:22.630Z,99.90
2018-02-01T07:52:50.365Z,99.90
2018-02-01T07:55:18.059Z,99.90
2018-02-01T07:57:45.688Z,99.90
2018-02-01T08:00:14.208Z,99.90
2018-02-01T08:02:41.868Z,99.90
2018-02-01T08:05:09.607Z,99.90
2018-02-01T08:07:38.010Z,99.90
2018-02-01T08:10:06.389Z,99.90
2018-02-01T08:12:35.078Z,99.90
2018-02-01T08:15:03.478Z,99.90
2018-02-01T08:17:31.300Z,99.90
2018-02-01T08:19:58.941Z,99.90
2018-02-01T08:22:27.472Z,99.90
2018-02-01T08:24:55.144Z,99.90
2018-02-01T08:27:22.769Z,99.90
2018-02-01T08:29:51.300Z,99.90
2018-02-01T08:32:19.676Z,99.90
2018-02-01T08:34:48.515Z,99.90
2018-02-01T08:37:16.128Z,99.90
2018-02-01T08:39:43.783Z,99.90
2018-02-01T08:42:11.448Z,99.90
2018-02-01T08:44:39.053Z,99.90
2018-02-01T08:47:06.695Z,99.90
2018-02-01T08:49:34.354Z,99.90
2018-02-01T08:52:02.120Z,99.90
2018-02-01T08:54:29.802Z,99.90
2018-02-01T08:56:57.401Z,99.90
2018-02-01T08:59:25.063Z,99.90
2018-02-01T09:01:52.665Z,99.90
2018-02-01T09:04:20.443Z,99.90
2018-02-01T09:06:48.081Z,99.90
2018-02-01T09:09:15.685Z,99.90
2018-02-01T09:11:43.693Z,99.90
2018-02-01T09:14:12.077Z,99.90
2018-02-01T09:16:40.519Z,99.90
2018-02-01T09:19:08.217Z,99.90
2018-02-01T09:21:35.847Z,99.90
2018-02-01T09:24:03.488Z,99.90
2018-02-01T09:26:31.138Z,99.90
2018-02-01T09:28:59.698Z,99.90
2018-02-01T09:31:27.297Z,99.90
2018-02-01T09:33:55.083Z,99.90
2018-02-01T09:36:24.484Z,99.90
2018-02-01T09:38:52.854Z,99.90
2018-02-01T09:41:20.481Z,99.90
2018-02-01T09:43:49.952Z,99.90
2018-02-01T09:46:17.612Z,99.90
2018-02-01T09:48:45.273Z,99.90
2018-02-01T09:51:13.035Z,99.90
2018-02-01T09:53:40.713Z,99.90
2018-02-01T09:56:08.321Z,99.90
2018-02-01T09:58:36.071Z,99.90
2018-02-01T10:01:03.710Z,99.90
2018-02-01T10:03:31.942Z,99.60
2018-02-01T10:05:59.613Z,99.50
2018-02-01T10:08:27.255Z,99.70
2018-02-01T10:10:54.889Z,99.40
2018-02-01T10:13:23.077Z,99.50
2018-02-01T10:15:50.721Z,98.70
2018-02-01T10:18:19.129Z,99.10
2018-02-01T10:20:48.447Z,99.10
2018-02-01T10:23:16.039Z,98.10
2018-02-01T10:25:43.976Z,98.40
2018-02-01T10:28:11.761Z,97.50
2018-02-01T10:30:39.395Z,99.10
2018-02-01T10:33:07.182Z,97.30
2018-02-01T10:35:34.885Z,97.60
2018-02-01T10:38:02.519Z,97.90
2018-02-01T10:40:30.172Z,96.90
2018-02-01T10:42:57.855Z,96.90
2018-02-01T10:45:26.802Z,97.50
2018-02-01T10:47:55.197Z,97.00
2018-02-01T10:50:23.722Z,96.00
2018-02-01T10:52:51.341Z,96.00
2018-02-01T10:55:19.468Z,97.60
2018-02-01T10:57:47.208Z,96.30
2018-02-01T11:00:14.868Z,95.90
2018-02-01T11:02:42.875Z,97.30
2018-02-01T11:05:10.498Z,95.10
2018-02-01T11:07:38.282Z,96.40
2018-02-01T11:10:05.920Z,96.50
2018-02-01T11:12:34.929Z,96.10
2018-02-01T11:15:02.675Z,96.10
2018-02-01T11:17:30.280Z,95.00
2018-02-01T11:19:57.917Z,95.90
2018-02-01T11:22:27.052Z,96.40
2018-02-01T11:24:54.660Z,96.40
2018-02-01T11:27:22.273Z,95.10
2018-02-01T11:29:49.974Z,95.40
2018-02-01T11:32:17.581Z,94.30
2018-02-01T11:34:45.273Z,94.30
2018-02-01T11:37:13.629Z,94.40
2018-02-01T11:39:42.382Z,94.40
2018-02-01T11:42:10.018Z,94.60
2018-02-01T11:44:37.843Z,93.70
2018-02-01T11:47:05.482Z,94.80
2018-02-01T11:49:33.078Z,94.00
2018-02-01T11:52:00.750Z,94.30
2018-02-01T11:54:28.355Z,93.60
2018-02-01T11:56:56.786Z,94.20
2018-02-01T11:59:24.382Z,94.20
2018-02-01T12:01:52.757Z,94.00
2018-02-01T12:04:20.461Z,94.20
2018-02-01T12:06:48.054Z,94.10
2018-02-01T12:09:16.325Z,94.40
2018-02-01T12:11:44.053Z,93.40
2018-02-01T12:14:12.470Z,93.80
2018-02-01T12:16:40.120Z,93.80
2018-02-01T12:19:07.871Z,94.10
2018-02-01T12:21:36.255Z,93.60
2018-02-01T12:24:04.694Z,93.70
2018-02-01T12:26:32.314Z,93.10
2018-02-01T12:29:02.736Z,93.50
2018-02-01T12:31:30.457Z,93.60
2018-02-01T12:33:58.094Z,93.20
2018-02-01T12:36:25.856Z,93.20
2018-02-01T12:38:53.484Z,92.90
2018-02-01T12:41:21.708Z,93.10
2018-02-01T12:43:49.302Z,92.80
2018-02-01T12:46:17.799Z,93.70
2018-02-01T12:48:47.676Z,94.00
2018-02-01T12:51:15.310Z,94.10
2018-02-01T12:53:45.530Z,94.00
2018-02-01T12:56:13.113Z,94.30
2018-02-01T12:58:41.859Z,93.60
2018-02-01T13:01:17.098Z,93.50
2018-02-01T13:03:44.887Z,93.80
2018-02-01T13:06:13.165Z,94.30
2018-02-01T13:08:41.137Z,93.40
2018-02-01T13:11:08.740Z,94.60
2018-02-01T13:13:36.480Z,93.00
2018-02-01T13:16:04.090Z,93.10
2018-02-01T13:18:31.752Z,93.30
2018-02-01T13:20:59.439Z,93.30
2018-02-01T13:23:27.119Z,93.70
2018-02-01T13:25:54.776Z,94.30
2018-02-01T13:28:23.101Z,94.40
2018-02-01T13:30:50.739Z,93.20
2018-02-01T13:33:19.314Z,93.90
2018-02-01T13:35:47.618Z,93.30
2018-02-01T13:38:15.248Z,94.20
2018-02-01T13:40:42.940Z,94.00
2018-02-01T13:43:11.625Z,92.90
2018-02-01T13:45:39.247Z,93.20
2018-02-01T13:48:07.920Z,93.30
2018-02-01T13:50:37.376Z,94.30
2018-02-01T13:53:05.005Z,93.30
2018-02-01T13:55:33.447Z,92.90
2018-02-01T13:58:01.100Z,94.00
2018-02-01T14:00:28.730Z,93.40
2018-02-01T14:02:58.987Z,93.50
2018-02-01T14:05:26.607Z,93.30
2018-02-01T14:07:54.368Z,93.60
2018-02-01T14:10:21.983Z,94.30
2018-02-01T14:12:50.713Z,93.50
2018-02-01T14:15:19.153Z,94.30
2018-02-01T14:17:46.857Z,93.70
2018-02-01T14:20:14.790Z,94.30
2018-02-01T14:22:43.683Z,94.00
2018-02-01T14:25:11.302Z,94.30
2018-02-01T14:27:40.070Z,93.00
2018-02-01T14:30:08.041Z,94.10
2018-02-01T14:32:35.716Z,93.70
2018-02-01T14:35:03.725Z,92.30
2018-02-01T14:37:32.555Z,93.10
2018-02-01T14:40:00.936Z,92.40
2018-02-01T14:42:30.277Z,92.80
2018-02-01T14:44:59.183Z,92.80
2018-02-01T14:47:26.824Z,92.50
2018-02-01T14:49:54.480Z,92.90
2018-02-01T14:52:22.105Z,92.90
2018-02-01T14:54:49.805Z,92.30
2018-02-01T14:57:17.451Z,92.20
2018-02-01T14:59:45.194Z,92.30
2018-02-01T15:02:13.630Z,93.30
2018-02-01T15:04:41.261Z,93.30
2018-02-01T15:07:08.886Z,93.40
2018-02-01T15:09:36.589Z,93.30
2018-02-01T15:12:05.379Z,94.40
2018-02-01T15:14:34.443Z,94.60
2018-02-01T15:17:05.514Z,94.20
2018-02-01T15:19:34.491Z,94.90
2018-02-01T15:22:02.171Z,94.90
2018-02-01T15:24:30.175Z,94.60
2018-02-01T15:26:59.560Z,94.10
2018-02-01T15:29:27.935Z,94.50
2018-02-01T15:31:56.318Z,94.80
2018-02-01T15:34:24.014Z,94.80
2018-02-01T15:36:51.668Z,95.10
2018-02-01T15:39:20.099Z,95.70
2018-02-01T15:41:47.888Z,95.60
2018-02-01T15:44:15.694Z,96.10
2018-02-01T15:46:43.377Z,96.00
2018-02-01T15:49:11.022Z,96.20
2018-02-01T15:51:38.634Z,96.70
2018-02-01T15:54:06.658Z,97.30
2018-02-01T15:56:34.333Z,97.30
2018-02-01T15:59:02.711Z,98.00
2018-02-01T16:01:30.413Z,98.00
2018-02-01T16:03:58.137Z,98.30
2018-02-01T16:06:28.549Z,98.00
2018-02-01T16:08:56.177Z,98.20
2018-02-01T16:11:23.779Z,98.50
2018-02-01T16:13:51.534Z,98.80
2018-02-01T16:16:19.170Z,98.80
2018-02-01T16:18:47.398Z,98.90
2018-02-01T16:21:15.039Z,99.30
2018-02-01T16:23:42.717Z,99.20
2018-02-01T16:26:10.343Z,99.40
2018-02-01T16:28:38.914Z,99.50
2018-02-01T16:31:07.516Z,99.70
2018-02-01T16:33:35.238Z,99.40
2018-02-01T16:36:02.838Z,99.70
2018-02-01T16:38:31.360Z,99.90
2018-02-01T16:40:58.964Z,99.90
2018-02-01T16:43:26.624Z,99.90
2018-02-01T16:45:54.217Z,99.90
2018-02-01T16:48:21.841Z,99.90
2018-02-01T16:50:49.653Z,99.90
2018-02-01T16:53:18.061Z,99.90
2018-02-01T16:55:45.867Z,99.90
2018-02-01T16:58:13.502Z,99.90
2018-02-01T17:00:41.099Z,99.90
2018-02-01T17:03:09.009Z,99.90
2018-02-01T17:05:36.646Z,99.90
2018-02-01T17:08:04.649Z,99.90
2018-02-01T17:10:32.286Z,99.90
2018-02-01T17:12:59.994Z,99.90
2018-02-01T17:15:29.141Z,99.90
2018-02-01T17:17:56.752Z,99.90
2018-02-01T17:20:25.272Z,99.90
2018-02-01T17:22:52.949Z,99.90
2018-02-01T17:25:21.342Z,99.90
2018-02-01T17:27:48.986Z,99.90
2018-02-01T17:30:17.567Z,99.90
2018-02-01T17:32:45.305Z,99.90
2018-02-01T17:35:13.001Z,99.90
2018-02-01T17:37:41.395Z,99.90
2018-02-01T17:40:09.599Z,99.90
2018-02-01T17:42:37.235Z,99.90
2018-02-01T17:45:04.953Z,99.90
2018-02-01T17:47:32.799Z,99.90
2018-02-01T17:50:00.771Z,99.90
2018-02-01T17:52:28.370Z,99.90
2018-02-01T17:54:56.106Z,99.90
2018-02-01T17:57:23.699Z,99.90
2018-02-01T17:59:51.913Z,99.90
2018-02-01T18:02:19.548Z,99.90
2018-02-01T18:04:47.786Z,99.90
2018-02-01T18:07:17.690Z,99.90
2018-02-01T18:09:45.325Z,99.90
2018-02-01T18:12:12.979Z,99.90
2018-02-01T18:14:41.333Z,99.90
2018-02-01T18:17:08.969Z,99.90
2018-02-01T18:19:36.622Z,99.90
2018-02-01T18:22:04.262Z,99.90
2018-02-01T18:24:31.919Z,99.90
2018-02-01T18:26:59.620Z,99.90
2018-02-01T18:29:27.330Z,99.90
2018-02-01T18:31:54.969Z,99.90
2018-02-01T18:34:22.756Z,99.90
2018-02-01T18:36:50.524Z,99.90
2018-02-01T18:39:18.340Z,99.90
2018-02-01T18:41:45.986Z,99.90
2018-02-01T18:44:13.597Z,99.90
2018-02-01T18:46:41.541Z,99.90
2018-02-01T18:49:09.224Z,99.90
2018-02-01T18:51:36.862Z,99.90
2018-02-01T18:54:04.532Z,99.90
2018-02-01T18:56:32.131Z,99.90
2018-02-01T18:59:00.025Z,99.90
2018-02-01T19:01:28.476Z,99.90
2018-02-01T19:03:56.199Z,99.90
2018-02-01T19:06:23.842Z,99.90
2018-02-01T19:08:52.258Z,99.90
2018-02-01T19:11:21.441Z,99.90
2018-02-01T19:13:49.249Z,99.90
2018-02-01T19:16:16.995Z,99.90
2018-02-01T19:18:44.880Z,99.90
2018-02-01T19:21:12.564Z,99.90
2018-02-01T19:23:42.372Z,99.90
2018-02-01T19:26:12.756Z,99.90
2018-02-01T19:28:40.396Z,99.90
2018-02-01T19:31:08.624Z,99.90
2018-02-01T19:33:36.514Z,99.90
2018-02-01T19:36:05.313Z,99.90
2018-02-01T19:38:33.036Z,99.90
2018-02-01T19:41:01.482Z,99.90
2018-02-01T19:43:30.083Z,99.90
2018-02-01T19:45:57.982Z,99.90
2018-02-01T19:48:27.137Z,99.90
2018-02-01T19:50:55.653Z,99.90
2018-02-01T19:53:23.389Z,99.90
2018-02-01T19:55:51.060Z,99.90
2018-02-01T19:58:18.807Z,99.90
2018-02-01T20:00:46.532Z,99.90
2018-02-01T20:03:14.197Z,99.90
2018-02-01T20:05:41.994Z,99.90
2018-02-01T20:08:10.471Z,99.90
2018-02-01T20:10:39.227Z,99.90
2018-02-01T20:13:06.944Z,99.90
2018-02-01T20:15:35.355Z,99.90
2018-02-01T20:18:03.146Z,99.90
2018-02-01T20:20:30.981Z,99.90
2018-02-01T20:22:58.961Z,99.90
2018-02-01T20:25:26.655Z,99.90
2018-02-01T20:27:54.319Z,99.90
2018-02-01T20:30:22.306Z,99.90
2018-02-01T20:32:50.092Z,99.90
2018-02-01T20:35:18.575Z,99.90
2018-02-01T20:37:46.678Z,99.90
2018-02-01T20:40:14.460Z,99.90
2018-02-01T20:42:42.565Z,99.90
2018-02-01T20:45:10.243Z,99.90
2018-02-01T20:47:37.927Z,99.90
2018-02-01T20:50:05.644Z,99.90
2018-02-01T20:52:33.343Z,99.90
2018-02-01T20:55:01.045Z,99.90
2018-02-01T20:57:30.907Z,99.90
2018-02-01T20:59:58.518Z,99.90
2018-02-01T21:02:26.182Z,99.90
2018-02-01T21:04:53.824Z,99.90
2018-02-01T21:07:22.862Z,99.90
2018-02-01T21:09:50.517Z,99.90
2018-02-01T21:12:18.151Z,99.90
2018-02-01T21:14:45.794Z,99.90
2018-02-01T21:17:14.223Z,99.90
2018-02-01T21:19:41.864Z,99.90
2018-02-01T21:22:10.366Z,99.90
2018-02-01T21:24:38.050Z,99.90
2018-02-01T21:27:05.652Z,99.90
2018-02-01T21:29:34.064Z,99.90
2018-02-01T21:32:01.772Z,99.90
2018-02-01T21:34:30.408Z,99.90
2018-02-01T21:36:58.057Z,99.90
2018-02-01T21:39:25.729Z,99.90
2018-02-01T21:41:54.190Z,99.90
2018-02-01T21:44:21.795Z,99.90
2018-02-01T21:46:49.426Z,99.90
2018-02-01T21:49:17.887Z,99.90
2018-02-01T21:51:45.543Z,99.90
2018-02-01T21:54:13.163Z,99.90
2018-02-01T21:56:41.608Z,99.90
2018-02-01T21:59:09.311Z,99.90
2018-02-01T22:01:37.746Z,99.90
2018-02-01T22:04:05.448Z,99.90
2018-02-01T22:06:33.881Z,99.90
2018-02-01T22:09:01.516Z,99.90
2018-02-01T22:11:29.898Z,99.90
2018-02-01T22:13:58.312Z,99.90
2018-02-01T22:16:25.987Z,99.90
2018-02-01T22:18:53.645Z,99.90
2018-02-01T22:21:21.289Z,99.90
2018-02-01T22:23:48.989Z,99.90
2018-02-01T22:26:16.638Z,99.90
2018-02-01T22:28:45.726Z,99.90
2018-02-01T22:31:13.443Z,99.90
2018-02-01T22:33:41.058Z,99.90
2018-02-01T22:36:09.482Z,99.90
2018-02-01T22:38:37.134Z,99.90
2018-02-01T22:41:04.735Z,99.90
2018-02-01T22:43:32.414Z,99.90
2018-02-01T22:46:00.010Z,99.90
2018-02-01T22:48:28.442Z,99.90
2018-02-01T22:50:56.068Z,99.90
2018-02-01T22:53:23.723Z,99.90
2018-02-01T22:55:52.168Z,99.90
2018-02-01T22:58:19.790Z,99.90
2018-02-01T23:00:47.405Z,99.90
2018-02-01T23:03:15.040Z,99.90
2018-02-01T23:05:42.673Z,99.90
2018-02-01T23:08:11.072Z,99.90
2018-02-01T23:10:38.795Z,99.90
2018-02-01T23:13:06.445Z,99.90
2018-02-01T23:15:34.087Z,99.90
2018-02-01T23:18:01.767Z,99.90
2018-02-01T23:20:29.513Z,99.90
2018-02-01T23:22:57.168Z,99.90
2018-02-01T23:25:24.787Z,99.90
2018-02-01T23:27:52.405Z,99.90
2018-02-01T23:30:20.811Z,99.90
2018-02-01T23:32:48.438Z,99.90
2018-02-01T23:35:16.867Z,99.90
2018-02-01T23:37:44.495Z,99.90
2018-02-01T23:40:12.908Z,99.90
2018-02-01T23:42:40.508Z,99.90
2018-02-01T23:45:08.251Z,99.90
2018-02-01T23:47:35.880Z,99.90
2018-02-01T23:50:03.559Z,99.90
2018-02-01T23:52:31.202Z,99.90
2018-02-01T23:54:58.864Z,99.90
2018-02-01T23:57:27.300Z,99.90
2018-02-01T23:59:55.012Z,99.90
